createdAt,value
2023-01-20T00:01:48.255Z,1.60
2023-01-20T00:04:15.675Z,1.50
2023-01-20T00:06:42.748Z,1.60
2023-01-20T00:09:15.656Z,1.60
2023-01-20T00:11:42.771Z,1.60
2023-01-20T00:14:10.547Z,1.90
2023-01-20T00:16:37.886Z,1.80
2023-01-20T00:19:05.300Z,2.00
2023-01-20T00:21:36.518Z,2.20
2023-01-20T00:24:04.177Z,2.60
2023-01-20T00:26:31.491Z,2.40
2023-01-20T00:28:59.115Z,2.40
2023-01-20T00:31:28.684Z,2.40
2023-01-20T00:34:01.994Z,2.80
2023-01-20T00:36:33.963Z,2.70
2023-01-20T00:39:03.042Z,2.60
2023-01-20T00:41:30.377Z,2.70
2023-01-20T00:43:57.941Z,2.70
2023-01-20T00:46:27.927Z,2.70
2023-01-20T00:48:56.958Z,2.90
2023-01-20T00:51:24.119Z,3.10
2023-01-20T00:53:51.773Z,2.80
2023-01-20T00:56:19.722Z,2.90
2023-01-20T00:59:02.677Z,3.00
2023-01-20T01:01:29.728Z,2.80
2023-01-20T01:03:56.906Z,2.80
2023-01-20T01:06:24.075Z,2.70
2023-01-20T01:08:51.579Z,2.70
2023-01-20T01:11:22.117Z,2.50
2023-01-20T01:13:49.689Z,2.70
2023-01-20T01:16:17.073Z,2.50
2023-01-20T01:18:45.464Z,2.30
2023-01-20T01:21:16.882Z,2.40
2023-01-20T01:24:17.491Z,2.60
2023-01-20T01:26:46.284Z,2.80
2023-01-20T01:29:13.660Z,2.60
2023-01-20T01:31:40.683Z,2.60
2023-01-20T01:34:07.710Z,2.70
2023-01-20T01:36:34.744Z,2.60
2023-01-20T01:42:29.292Z,2.70
2023-01-20T01:48:32.778Z,2.50
2023-01-20T01:51:06.040Z,2.50
2023-01-20T01:53:58.943Z,2.20
2023-01-20T01:56:27.728Z,2.10
2023-01-20T01:58:59.001Z,2.10
2023-01-20T02:01:40.501Z,2.20
2023-01-20T02:13:49.373Z,2.20
2023-01-20T03:23:04.029Z,2.20
2023-01-20T03:25:32.050Z,2.20
2023-01-20T03:59:00.568Z,2.10
2023-01-20T04:01:34.300Z,2.20
2023-01-20T04:04:03.511Z,2.20
2023-01-20T04:16:00.706Z,2.20
2023-01-20T04:18:27.914Z,2.30
2023-01-20T04:21:06.389Z,2.30
2023-01-20T04:23:42.206Z,2.40
2023-01-20T05:06:49.414Z,2.10
2023-01-20T05:09:17.066Z,2.30
2023-01-20T11:36:17.929Z,3.30
2023-01-20T11:38:47.908Z,3.50
2023-01-20T11:41:20.120Z,3.60
2023-01-20T12:19:04.842Z,3.40
2023-01-20T12:27:58.344Z,3.10
2023-01-20T12:42:47.195Z,2.80
2023-01-20T12:45:21.568Z,2.90
2023-01-20T12:47:49.860Z,3.20
2023-01-20T12:54:27.126Z,3.10
2023-01-20T12:57:31.700Z,3.00
2023-01-20T13:00:21.048Z,3.10
2023-01-20T13:03:51.985Z,3.00
2023-01-20T13:46:12.145Z,2.40
2023-01-20T13:49:04.095Z,2.70
2023-01-20T13:51:37.177Z,2.50
2023-01-20T13:54:31.872Z,2.80
2023-01-20T13:57:23.371Z,2.60
2023-01-20T13:59:51.983Z,2.30
2023-01-20T14:02:28.490Z,2.10
2023-01-20T14:04:58.945Z,2.20
2023-01-20T14:07:33.143Z,2.10
2023-01-20T14:10:01.697Z,2.30
2023-01-20T14:12:30.529Z,2.50
2023-01-20T14:14:57.512Z,2.40
2023-01-20T14:17:25.312Z,2.70
2023-01-20T14:19:58.787Z,2.50
2023-01-20T14:22:30.204Z,2.60
2023-01-20T14:25:03.007Z,2.60
2023-01-20T14:27:33.698Z,2.80
2023-01-20T14:30:19.780Z,2.70
2023-01-20T14:32:47.118Z,2.70
2023-01-20T14:35:28.561Z,2.70
2023-01-20T14:37:55.791Z,2.80
2023-01-20T14:40:31.454Z,2.80
2023-01-20T14:43:07.104Z,2.90
2023-01-20T14:45:36.198Z,3.10
2023-01-20T14:48:05.433Z,3.00
2023-01-20T14:50:32.481Z,3.00
2023-01-20T14:52:59.756Z,3.10
2023-01-20T14:55:40.934Z,3.20
2023-01-20T14:58:14.437Z,3.00
2023-01-20T15:00:46.996Z,2.90
2023-01-20T15:03:20.075Z,3.00
2023-01-20T15:06:01.162Z,3.00
2023-01-20T15:09:05.013Z,2.90
2023-01-20T15:11:33.558Z,2.80
2023-01-20T15:14:01.015Z,2.80
2023-01-20T15:16:38.736Z,2.90
2023-01-20T15:19:18.650Z,2.90
2023-01-20T15:21:49.889Z,2.90
2023-01-20T15:24:25.697Z,2.90
2023-01-20T15:26:54.931Z,3.00
2023-01-20T15:29:30.774Z,3.00
2023-01-20T15:32:07.067Z,3.10
2023-01-20T15:34:33.969Z,2.90
2023-01-20T15:37:02.014Z,2.50
2023-01-20T15:39:30.492Z,2.20
2023-01-20T15:41:58.542Z,2.50
2023-01-20T15:44:26.884Z,2.60
2023-01-20T15:46:57.382Z,2.70
2023-01-20T15:49:25.657Z,2.80
2023-01-20T15:51:54.290Z,2.40
2023-01-20T15:54:21.347Z,2.40
2023-01-20T15:56:49.550Z,2.50
2023-01-20T15:59:21.127Z,2.60
2023-01-20T16:01:50.284Z,2.60
2023-01-20T16:04:17.907Z,2.60
2023-01-20T16:06:45.422Z,2.70
2023-01-20T16:09:29.993Z,2.70
2023-01-20T16:11:57.047Z,2.80
2023-01-20T16:14:24.187Z,2.90
2023-01-20T16:16:51.200Z,2.80
2023-01-20T16:19:18.318Z,2.90
2023-01-20T16:21:45.800Z,2.90
2023-01-20T16:24:13.199Z,2.80
2023-01-20T16:26:46.756Z,2.90
2023-01-20T16:29:13.743Z,2.80
2023-01-20T16:31:41.059Z,2.80
2023-01-20T16:34:08.397Z,2.80
2023-01-20T16:36:35.368Z,2.90
2023-01-20T16:39:02.488Z,2.90
2023-01-20T16:41:33.156Z,2.80
2023-01-20T16:44:00.143Z,2.80
2023-01-20T16:46:31.113Z,2.90
2023-01-20T16:48:59.764Z,2.80
2023-01-20T16:51:28.140Z,2.90
2023-01-20T16:53:56.389Z,3.00
2023-01-20T16:56:28.688Z,3.00
2023-01-20T16:59:03.597Z,2.80
2023-01-20T17:01:31.387Z,2.70
2023-01-20T17:04:02.395Z,2.60
2023-01-20T17:06:32.432Z,2.70
2023-01-20T17:09:01.590Z,2.70
2023-01-20T17:11:34.850Z,2.80
2023-01-20T17:14:03.900Z,2.80
2023-01-20T17:16:31.211Z,2.70
2023-01-20T17:18:59.592Z,2.70
2023-01-20T17:21:29.686Z,2.80
2023-01-20T17:24:02.169Z,2.70
2023-01-20T17:26:29.903Z,2.80
2023-01-20T17:28:59.072Z,2.80
2023-01-20T17:31:26.170Z,2.90
2023-01-20T17:33:53.338Z,2.80
2023-01-20T17:36:20.571Z,2.70
2023-01-20T17:38:47.555Z,2.40
2023-01-20T17:41:16.633Z,2.20
2023-01-20T17:43:48.301Z,2.10
2023-01-20T17:46:23.026Z,2.30
2023-01-20T17:48:51.021Z,2.40
2023-01-20T17:51:19.303Z,2.50
2023-01-20T17:53:46.844Z,2.50
2023-01-20T17:56:14.734Z,2.40
2023-01-20T17:58:43.904Z,2.40
2023-01-20T18:01:13.824Z,2.30
2023-01-20T18:03:43.084Z,2.30
2023-01-20T18:06:11.735Z,2.50
2023-01-20T18:08:39.091Z,2.50
2023-01-20T18:11:11.326Z,2.50
2023-01-20T18:13:40.139Z,2.40
2023-01-20T18:16:12.551Z,2.40
2023-01-20T18:18:40.646Z,2.40
2023-01-20T18:21:21.432Z,2.50
2023-01-20T18:23:50.104Z,2.40
2023-01-20T18:26:20.935Z,2.40
2023-01-20T18:28:49.098Z,2.40
2023-01-20T18:31:19.434Z,2.30
2023-01-20T18:33:58.134Z,2.30
2023-01-20T18:36:31.847Z,2.30
2023-01-20T18:39:13.493Z,2.40
2023-01-20T18:41:44.013Z,2.40
2023-01-20T18:44:12.472Z,2.50
2023-01-20T18:46:39.731Z,2.50
2023-01-20T18:49:09.563Z,2.40
2023-01-20T18:51:37.124Z,2.40
2023-01-20T18:54:11.769Z,2.30
2023-01-20T18:56:39.872Z,2.20
2023-01-20T18:59:07.666Z,2.40
2023-01-20T19:01:37.435Z,2.60
2023-01-20T19:04:06.039Z,2.40
2023-01-20T19:06:36.962Z,2.40
2023-01-20T19:09:05.807Z,2.40
2023-01-20T19:11:36.421Z,2.40
2023-01-20T19:14:03.742Z,2.40
2023-01-20T19:16:33.094Z,2.10
2023-01-20T19:19:02.281Z,2.00
2023-01-20T19:21:32.535Z,2.00
2023-01-20T19:24:06.076Z,2.00
2023-01-20T19:26:35.642Z,2.00
2023-01-20T19:29:06.038Z,2.10
2023-01-20T19:31:36.412Z,2.00
2023-01-20T19:34:03.784Z,2.00
2023-01-20T19:36:31.108Z,2.10
2023-01-20T19:38:59.093Z,1.90
2023-01-20T19:41:28.425Z,1.90
2023-01-20T19:43:57.631Z,2.00
2023-01-20T19:46:27.679Z,2.00
2023-01-20T19:48:56.567Z,2.00
2023-01-20T19:51:24.650Z,2.00
2023-01-20T19:53:58.723Z,1.90
2023-01-20T19:56:27.534Z,1.80
2023-01-20T19:59:00.893Z,1.80
2023-01-20T20:01:31.783Z,1.80
2023-01-20T20:04:00.045Z,1.80
2023-01-20T20:06:33.383Z,1.80
2023-01-20T20:09:11.613Z,1.80
2023-01-20T20:11:39.281Z,1.80
2023-01-20T20:14:08.529Z,1.60
2023-01-20T20:16:37.007Z,1.60
2023-01-20T20:19:12.463Z,1.80
2023-01-20T20:21:39.525Z,1.70
2023-01-20T20:24:08.112Z,1.60
2023-01-20T20:26:36.979Z,1.70
2023-01-20T20:29:06.066Z,1.80
2023-01-20T20:31:35.689Z,1.80
2023-01-20T20:34:04.884Z,1.90
2023-01-20T20:36:33.604Z,1.90
2023-01-20T20:39:05.227Z,1.80
2023-01-20T20:41:35.446Z,1.70
2023-01-20T20:44:05.582Z,1.60
2023-01-20T20:46:33.007Z,1.70
2023-01-20T20:49:01.246Z,1.60
2023-01-20T20:51:32.700Z,1.60
2023-01-20T20:54:03.560Z,1.60
2023-01-20T20:56:33.599Z,1.60
2023-01-20T20:59:03.235Z,1.60
2023-01-20T21:01:33.157Z,1.60
2023-01-20T21:04:01.563Z,1.60
2023-01-20T21:06:30.968Z,1.60
2023-01-20T21:08:58.911Z,1.70
2023-01-20T21:11:26.365Z,1.70
2023-01-20T21:13:53.878Z,1.50
2023-01-20T21:16:23.545Z,1.50
2023-01-20T21:19:01.486Z,1.60
2023-01-20T21:21:29.177Z,1.50
2023-01-20T21:23:58.161Z,1.60
2023-01-20T21:26:30.622Z,1.60
2023-01-20T21:29:02.078Z,1.70
2023-01-20T21:31:31.675Z,1.70
2023-01-20T21:34:00.579Z,1.70
2023-01-20T21:36:30.070Z,1.80
2023-01-20T21:38:58.871Z,1.80
2023-01-20T21:41:25.886Z,1.80
2023-01-20T21:44:13.225Z,1.80
2023-01-20T21:46:40.747Z,1.80
2023-01-20T21:49:32.659Z,1.80
2023-01-20T21:52:17.969Z,1.80
2023-01-20T21:54:45.693Z,1.60
2023-01-20T21:57:13.458Z,1.60
2023-01-20T21:59:40.848Z,1.60
2023-01-20T22:02:08.691Z,1.60
2023-01-20T22:04:35.995Z,1.60
2023-01-20T22:07:03.034Z,1.40
2023-01-20T22:09:30.241Z,1.40
2023-01-20T22:11:57.322Z,1.40
2023-01-20T22:14:25.194Z,1.60
2023-01-20T22:16:52.377Z,1.40
2023-01-20T22:19:19.505Z,1.40
2023-01-20T22:21:46.465Z,1.40
2023-01-20T22:24:13.976Z,1.60
2023-01-20T22:26:41.124Z,1.60
2023-01-20T22:29:09.539Z,1.60
2023-01-20T22:31:36.766Z,1.60
2023-01-20T22:34:05.378Z,1.60
2023-01-20T22:36:33.660Z,1.70
2023-01-20T22:39:01.021Z,1.60
2023-01-20T22:41:28.383Z,1.60
2023-01-20T22:43:55.909Z,1.60
2023-01-20T22:46:31.102Z,1.50
2023-01-20T22:48:59.497Z,1.50
2023-01-20T22:51:36.043Z,1.60
2023-01-20T22:54:03.108Z,1.50
2023-01-20T22:56:32.195Z,1.60
2023-01-20T22:59:00.542Z,1.60
2023-01-20T23:01:36.951Z,1.60
2023-01-20T23:04:06.648Z,1.70
2023-01-20T23:06:36.113Z,1.80
2023-01-20T23:09:12.724Z,1.70
2023-01-20T23:11:43.080Z,1.80
2023-01-20T23:14:13.229Z,1.60
2023-01-20T23:16:41.260Z,1.60
2023-01-20T23:19:15.222Z,1.60
2023-01-20T23:21:42.740Z,1.40
2023-01-20T23:24:10.293Z,1.30
2023-01-20T23:26:39.319Z,1.20
2023-01-20T23:29:12.507Z,1.00
2023-01-20T23:31:41.374Z,1.00
2023-01-20T23:34:08.736Z,0.90
2023-01-20T23:36:36.179Z,0.80
2023-01-20T23:39:03.836Z,0.80
2023-01-20T23:41:31.828Z,0.70
2023-01-20T23:43:58.945Z,0.70
2023-01-20T23:46:30.505Z,0.70
2023-01-20T23:48:57.744Z,0.60
2023-01-20T23:51:24.784Z,0.50
2023-01-20T23:53:52.059Z,0.40
2023-01-20T23:56:25.709Z,0.30
2023-01-20T23:58:56.309Z,0.30
